Father Mychal Judge — WDG3566 — position and weather

sailwx.info

Track history (hours):
 
Tides and Currents Weather Stations Pressure Air Temp Water Temp Dewpoint Dewpoint Depression Visibility Wind Speed Wind Dir Waves Ship Positions

Father Mychal Judge

Owner: Billy Bey Ferry, Weehawken, NJ. More information available from US FCC via Universal Licensing System and Coast Guard Vessel Documentation Center.

Last reported at 2017-Oct-17 23:44 UTC. Time now 2017-Oct-18 05:29 UTC.
Position N 40°41' W 074°04'.

Length 22 m.

Type: Passenger vessel. MMSI: 366834160.

Date/timePositionNaut miles runAvg speedWind from/ knotsBaromVisibWave heightAir tempDewpointWater temp
2017-Oct-17 23:44N 40°41' W 074°04'313.0
2017-Oct-17 23:31N 40°42' W 074°01'2 3.4
2017-Oct-17 23:01N 40°41' W 074°02'1 2.7
2017-Oct-17 22:31N 40°41' W 074°04'0 0.6
2017-Oct-17 22:00N 40°41' W 074°05'1 1.7
2017-Oct-17 21:30N 40°41' W 074°04'1 2.6
2017-Oct-17 21:01N 40°41' W 074°02'1 1.8
2017-Oct-17 20:31N 40°42' W 074°01'1 1.1
2017-Oct-17 20:00N 40°42' W 074°01'3 6.0
2017-Oct-17 19:31N 40°41' W 074°04'0 0.0
2017-Oct-17 13:57N 40°41' W 074°04'0 0.0
2017-Oct-17 13:30N 40°41' W 074°05'1 1.9
2017-Oct-17 13:01N 40°41' W 074°04'2 3.8
2017-Oct-17 12:30N 40°41' W 074°01'1 1.6
2017-Oct-17 12:01N 40°42' W 074°01'1 2.3
2017-Oct-17 11:30N 40°41' W 074°02'2 3.6
2017-Oct-17 11:01N 40°41' W 074°04'0 0.6
2017-Oct-17 10:30N 40°41' W 074°04'0 0.1
2017-Oct-17 10:01N 40°41' W 074°05'0 0.0
2017-Oct-16 23:46N 40°41' W 074°04'311.6
2017-Oct-16 23:30N 40°42' W 074°01'2 3.5
2017-Oct-16 23:01N 40°41' W 074°02'1 2.7
2017-Oct-16 22:31N 40°41' W 074°04'0 0.8
2017-Oct-16 22:00N 40°41' W 074°05'1 2.4
2017-Oct-16 21:30N 40°41' W 074°03'1 1.5
2017-Oct-16 21:01N 40°41' W 074°02'2 3.3
2017-Oct-16 20:30N 40°42' W 074°01'0 0.0
2017-Oct-16 20:00N 40°42' W 074°01'3 5.8
2017-Oct-16 19:30N 40°41' W 074°04'0 0.0
2017-Oct-16 14:40N 40°41' W 074°05'6 8.6
2017-Oct-16 14:00N 40°46' W 074°01'611.9
2017-Oct-16 13:30N 40°41' W 074°04'1 1.8
2017-Oct-16 13:01N 40°41' W 074°04'0 1.0
2017-Oct-16 12:30N 40°41' W 074°03'2 4.5
2017-Oct-16 12:00N 40°42' W 074°01'1 1.8
2017-Oct-16 11:30N 40°42' W 074°02'2 3.5
2017-Oct-16 11:00N 40°41' W 074°04'1 1.5
2017-Oct-16 10:30N 40°41' W 074°04'0 0.4
2017-Oct-16 10:00N 40°41' W 074°04'0 0.0
2017-Oct-16 09:30N 40°41' W 074°04'0 0.0
2017-Oct-16 09:00N 40°41' W 074°04'0 0.0
2017-Oct-16 08:30N 40°41' W 074°04'0 0.0
2017-Oct-16 08:00N 40°41' W 074°04'0 0.0
2017-Oct-16 07:30N 40°41' W 074°04'0 0.0
2017-Oct-16 07:00N 40°41' W 074°04'0 0.0
2017-Oct-16 06:30N 40°41' W 074°04'0 0.0
2017-Oct-16 06:00N 40°41' W 074°04'0 0.0
2017-Oct-16 05:30N 40°41' W 074°04'0 0.0
2017-Oct-16 05:00N 40°41' W 074°04'0 0.0
2017-Oct-16 04:30N 40°41' W 074°04'0 0.0
2017-Oct-16 04:00N 40°41' W 074°04'0 0.0
2017-Oct-16 03:30N 40°41' W 074°04'0 0.0
2017-Oct-16 03:00N 40°41' W 074°04'0 0.0
2017-Oct-16 02:30N 40°41' W 074°04'0 0.0
2017-Oct-16 02:00N 40°41' W 074°04'0 0.0
2017-Oct-16 01:30N 40°41' W 074°04'0 0.0
2017-Oct-13 23:44N 40°41' W 074°04'310.5
2017-Oct-13 23:27N 40°42' W 074°01'2 4.3
2017-Oct-13 23:00N 40°41' W 074°03'1 2.5
2017-Oct-13 22:30N 40°41' W 074°04'0 0.2
2017-Oct-13 22:00N 40°41' W 074°04'1 2.0
2017-Oct-13 21:30N 40°40' W 074°04'2 4.8
2017-Oct-13 21:00N 40°42' W 074°01'0 0.6
2017-Oct-13 20:29N 40°42' W 074°01'0 0.0
2017-Oct-13 20:00N 40°42' W 074°01'3 0.6
2017-Oct-13 14:50N 40°41' W 074°04'617.4
2017-Oct-13 14:30N 40°46' W 074°01'0 0.2
2017-Oct-13 14:00N 40°46' W 074°01'611.7
2017-Oct-13 13:30N 40°41' W 074°05'0 0.9
2017-Oct-13 13:00N 40°41' W 074°04'2 4.2
2017-Oct-13 12:30N 40°41' W 074°02'1 1.7
2017-Oct-13 12:00N 40°42' W 074°01'1 1.4
2017-Oct-13 11:30N 40°42' W 074°01'2 4.4
2017-Oct-13 11:01N 40°41' W 074°04'1 1.2
2017-Oct-13 10:30N 40°41' W 074°05'0 0.0
2017-Oct-13 10:00N 40°41' W 074°05'0 0.0
2017-Oct-12 23:38N 40°41' W 074°04'320.5
2017-Oct-12 23:29N 40°42' W 074°01'2 4.4
2017-Oct-12 23:00N 40°41' W 074°03'1 2.2
2017-Oct-12 22:30N 40°41' W 074°04'0 0.6
2017-Oct-12 22:00N 40°41' W 074°05'1 1.4
2017-Oct-12 21:30N 40°41' W 074°04'2 3.7
2017-Oct-12 21:00N 40°41' W 074°02'1 1.0
2017-Oct-12 20:30N 40°42' W 074°01'0 0.9
2017-Oct-12 20:00N 40°42' W 074°01'3 5.8
2017-Oct-12 19:30N 40°41' W 074°04'0 0.0
2017-Oct-12 14:05N 40°41' W 074°04'0 0.2
2017-Oct-12 13:59N 40°41' W 074°05'0 0.0
2017-Oct-12 13:30N 40°41' W 074°05'1 2.1
2017-Oct-12 13:00N 40°41' W 074°03'1 1.8
2017-Oct-12 12:30N 40°41' W 074°02'2 3.2
2017-Oct-12 12:00N 40°42' W 074°01'1 1.2
2017-Oct-12 11:30N 40°42' W 074°01'2 4.6
2017-Oct-12 11:00N 40°41' W 074°04'0 0.9
2017-Oct-12 10:29N 40°41' W 074°05'0 0.0
2017-Oct-12 09:59N 40°41' W 074°05'0 0.0
2017-Oct-11 23:38N 40°41' W 074°04'320.7
2017-Oct-11 23:30N 40°42' W 074°01'1 2.9
2017-Oct-11 23:00N 40°41' W 074°02'1 2.3
2017-Oct-11 22:30N 40°41' W 074°03'1 2.0
2017-Oct-11 21:59N 40°41' W 074°05'1 1.6
2017-Oct-11 21:30N 40°41' W 074°04'1 2.0
2017-Oct-11 21:00N 40°41' W 074°03'1 1.8
2017-Oct-11 20:30N 40°41' W 074°02'1 2.0
2017-Oct-11 20:00N 40°42' W 074°01'3 0.1
2017-Oct-10 23:46N 40°41' W 074°04'311.6
2017-Oct-10 23:30N 40°42' W 074°01'2 3.9
2017-Oct-10 23:01N 40°41' W 074°03'1 2.3
2017-Oct-10 22:30N 40°41' W 074°04'0 0.9
2017-Oct-10 22:01N 40°41' W 074°05'1 1.5
2017-Oct-10 21:31N 40°41' W 074°04'1 2.7
2017-Oct-10 21:00N 40°41' W 074°02'2 3.1
2017-Oct-10 20:31N 40°42' W 074°01'0 0.1
2017-Oct-10 20:00N 40°42' W 074°01'3 5.9
2017-Oct-10 19:30N 40°41' W 074°04'0 0.0
2017-Oct-10 13:59N 40°41' W 074°04'0 0.0
2017-Oct-10 13:30N 40°41' W 074°04'1 1.7
2017-Oct-10 13:01N 40°41' W 074°04'2 3.7
2017-Oct-10 12:31N 40°42' W 074°02'1 1.7
2017-Oct-10 12:01N 40°42' W 074°01'1 2.7
2017-Oct-10 11:31N 40°41' W 074°02'1 2.9
2017-Oct-10 11:00N 40°41' W 074°04'1 1.5
2017-Oct-10 10:30N 40°41' W 074°05'0 0.0
2017-Oct-10 10:00N 40°41' W 074°05'1 0.1
2017-Oct-09 23:37N 40°41' W 074°04'324.0
2017-Oct-09 23:31N 40°42' W 074°01'2 3.8
2017-Oct-09 23:01N 40°41' W 074°03'1 2.1
2017-Oct-09 22:31N 40°41' W 074°04'0 0.9
2017-Oct-09 22:00N 40°41' W 074°05'1 1.7
2017-Oct-09 21:30N 40°41' W 074°04'1 2.1
2017-Oct-09 21:00N 40°41' W 074°02'2 3.3
2017-Oct-09 20:30N 40°42' W 074°01'0 0.0
2017-Oct-09 20:00N 40°42' W 074°01'3 5.9
2017-Oct-09 19:30N 40°41' W 074°04'0 0.0
2017-Oct-09 15:18N 40°41' W 074°04'415.1
2017-Oct-09 15:00N 40°45' W 074°01'1 2.9
2017-Oct-09 14:30N 40°46' W 074°01'0 0.0
2017-Oct-09 14:00N 40°46' W 074°01'611.3
2017-Oct-09 13:30N 40°41' W 074°05'1 2.3
2017-Oct-09 13:00N 40°41' W 074°03'1 2.1
2017-Oct-09 12:31N 40°41' W 074°02'1 2.8
2017-Oct-09 12:01N 40°42' W 074°01'1 2.8
2017-Oct-09 11:30N 40°41' W 074°02'1 2.9
2017-Oct-09 11:00N 40°41' W 074°04'1 1.1
2017-Oct-09 10:30N 40°41' W 074°05'0 0.1
2017-Oct-09 10:00N 40°41' W 074°05'0 0.1
2017-Oct-09 09:30N 40°41' W 074°04'0 0.0
2017-Oct-09 09:00N 40°41' W 074°04'0 0.0
2017-Oct-09 08:30N 40°41' W 074°04'0 0.0
2017-Oct-09 08:00N 40°41' W 074°04'0 0.0
2017-Oct-09 07:30N 40°41' W 074°04'0 0.0
2017-Oct-09 07:00N 40°41' W 074°04'0 0.0
2017-Oct-09 06:30N 40°41' W 074°04'0 0.0
2017-Oct-09 06:00N 40°41' W 074°04'0 0.0
2017-Oct-09 05:30N 40°41' W 074°04'0 0.0
2017-Oct-09 05:00N 40°41' W 074°04'0 0.0
2017-Oct-09 04:30N 40°41' W 074°04'0 0.0
2017-Oct-09 04:00N 40°41' W 074°04'0 0.0
2017-Oct-09 03:30N 40°41' W 074°04'0 0.0
2017-Oct-09 03:00N 40°41' W 074°04'0 0.0
2017-Oct-09 02:30N 40°41' W 074°04'0 0.0
2017-Oct-09 02:00N 40°41' W 074°04'  
Track history (hours):
 
Tides and Currents Weather Stations Pressure Air Temp Water Temp Dewpoint Dewpoint Depression Visibility Wind Speed Wind Dir Waves Ship Positions

Father Mychal Judge

Owner: Billy Bey Ferry, Weehawken, NJ. More information available from US FCC via Universal Licensing System and Coast Guard Vessel Documentation Center.

Last reported at 2017-Oct-17 23:44 UTC. Time now 2017-Oct-18 05:29 UTC.
Position N 40°41' W 074°04'.

Length 22 m.

Type: Passenger vessel. MMSI: 366834160.

Date/timePositionNaut miles runAvg speedWind from/ knotsBaromVisibWave heightAir tempDewpointWater temp
2017-Oct-17 23:44N 40°41' W 074°04'313.0
2017-Oct-17 23:31N 40°42' W 074°01'2 3.4
2017-Oct-17 23:01N 40°41' W 074°02'1 2.7
2017-Oct-17 22:31N 40°41' W 074°04'0 0.6
2017-Oct-17 22:00N 40°41' W 074°05'1 1.7
2017-Oct-17 21:30N 40°41' W 074°04'1 2.6
2017-Oct-17 21:01N 40°41' W 074°02'1 1.8
2017-Oct-17 20:31N 40°42' W 074°01'1 1.1
2017-Oct-17 20:00N 40°42' W 074°01'3 6.0
2017-Oct-17 19:31N 40°41' W 074°04'0 0.0
2017-Oct-17 13:57N 40°41' W 074°04'0 0.0
2017-Oct-17 13:30N 40°41' W 074°05'1 1.9
2017-Oct-17 13:01N 40°41' W 074°04'2 3.8
2017-Oct-17 12:30N 40°41' W 074°01'1 1.6
2017-Oct-17 12:01N 40°42' W 074°01'1 2.3
2017-Oct-17 11:30N 40°41' W 074°02'2 3.6
2017-Oct-17 11:01N 40°41' W 074°04'0 0.6
2017-Oct-17 10:30N 40°41' W 074°04'0 0.1
2017-Oct-17 10:01N 40°41' W 074°05'0 0.0
2017-Oct-16 23:46N 40°41' W 074°04'311.6
2017-Oct-16 23:30N 40°42' W 074°01'2 3.5
2017-Oct-16 23:01N 40°41' W 074°02'1 2.7
2017-Oct-16 22:31N 40°41' W 074°04'0 0.8
2017-Oct-16 22:00N 40°41' W 074°05'1 2.4
2017-Oct-16 21:30N 40°41' W 074°03'1 1.5
2017-Oct-16 21:01N 40°41' W 074°02'2 3.3
2017-Oct-16 20:30N 40°42' W 074°01'0 0.0
2017-Oct-16 20:00N 40°42' W 074°01'3 5.8
2017-Oct-16 19:30N 40°41' W 074°04'0 0.0
2017-Oct-16 14:40N 40°41' W 074°05'6 8.6
2017-Oct-16 14:00N 40°46' W 074°01'611.9
2017-Oct-16 13:30N 40°41' W 074°04'1 1.8
2017-Oct-16 13:01N 40°41' W 074°04'0 1.0
2017-Oct-16 12:30N 40°41' W 074°03'2 4.5
2017-Oct-16 12:00N 40°42' W 074°01'1 1.8
2017-Oct-16 11:30N 40°42' W 074°02'2 3.5
2017-Oct-16 11:00N 40°41' W 074°04'1 1.5
2017-Oct-16 10:30N 40°41' W 074°04'0 0.4
2017-Oct-16 10:00N 40°41' W 074°04'0 0.0
2017-Oct-16 09:30N 40°41' W 074°04'0 0.0
2017-Oct-16 09:00N 40°41' W 074°04'0 0.0
2017-Oct-16 08:30N 40°41' W 074°04'0 0.0
2017-Oct-16 08:00N 40°41' W 074°04'0 0.0
2017-Oct-16 07:30N 40°41' W 074°04'0 0.0
2017-Oct-16 07:00N 40°41' W 074°04'0 0.0
2017-Oct-16 06:30N 40°41' W 074°04'0 0.0
2017-Oct-16 06:00N 40°41' W 074°04'0 0.0
2017-Oct-16 05:30N 40°41' W 074°04'0 0.0
2017-Oct-16 05:00N 40°41' W 074°04'0 0.0
2017-Oct-16 04:30N 40°41' W 074°04'0 0.0
2017-Oct-16 04:00N 40°41' W 074°04'0 0.0
2017-Oct-16 03:30N 40°41' W 074°04'0 0.0
2017-Oct-16 03:00N 40°41' W 074°04'0 0.0
2017-Oct-16 02:30N 40°41' W 074°04'0 0.0
2017-Oct-16 02:00N 40°41' W 074°04'0 0.0
2017-Oct-16 01:30N 40°41' W 074°04'0 0.0
2017-Oct-13 23:44N 40°41' W 074°04'310.5
2017-Oct-13 23:27N 40°42' W 074°01'2 4.3
2017-Oct-13 23:00N 40°41' W 074°03'1 2.5
2017-Oct-13 22:30N 40°41' W 074°04'0 0.2
2017-Oct-13 22:00N 40°41' W 074°04'1 2.0
2017-Oct-13 21:30N 40°40' W 074°04'2 4.8
2017-Oct-13 21:00N 40°42' W 074°01'0 0.6
2017-Oct-13 20:29N 40°42' W 074°01'0 0.0
2017-Oct-13 20:00N 40°42' W 074°01'3 0.6
2017-Oct-13 14:50N 40°41' W 074°04'617.4
2017-Oct-13 14:30N 40°46' W 074°01'0 0.2
2017-Oct-13 14:00N 40°46' W 074°01'611.7
2017-Oct-13 13:30N 40°41' W 074°05'0 0.9
2017-Oct-13 13:00N 40°41' W 074°04'2 4.2
2017-Oct-13 12:30N 40°41' W 074°02'1 1.7
2017-Oct-13 12:00N 40°42' W 074°01'1 1.4
2017-Oct-13 11:30N 40°42' W 074°01'2 4.4
2017-Oct-13 11:01N 40°41' W 074°04'1 1.2
2017-Oct-13 10:30N 40°41' W 074°05'0 0.0
2017-Oct-13 10:00N 40°41' W 074°05'0 0.0
2017-Oct-12 23:38N 40°41' W 074°04'320.5
2017-Oct-12 23:29N 40°42' W 074°01'2 4.4
2017-Oct-12 23:00N 40°41' W 074°03'1 2.2
2017-Oct-12 22:30N 40°41' W 074°04'0 0.6
2017-Oct-12 22:00N 40°41' W 074°05'1 1.4
2017-Oct-12 21:30N 40°41' W 074°04'2 3.7
2017-Oct-12 21:00N 40°41' W 074°02'1 1.0
2017-Oct-12 20:30N 40°42' W 074°01'0 0.9
2017-Oct-12 20:00N 40°42' W 074°01'3 5.8
2017-Oct-12 19:30N 40°41' W 074°04'0 0.0
2017-Oct-12 14:05N 40°41' W 074°04'0 0.2
2017-Oct-12 13:59N 40°41' W 074°05'0 0.0
2017-Oct-12 13:30N 40°41' W 074°05'1 2.1
2017-Oct-12 13:00N 40°41' W 074°03'1 1.8
2017-Oct-12 12:30N 40°41' W 074°02'2 3.2
2017-Oct-12 12:00N 40°42' W 074°01'1 1.2
2017-Oct-12 11:30N 40°42' W 074°01'2 4.6
2017-Oct-12 11:00N 40°41' W 074°04'0 0.9
2017-Oct-12 10:29N 40°41' W 074°05'0 0.0
2017-Oct-12 09:59N 40°41' W 074°05'0 0.0
2017-Oct-11 23:38N 40°41' W 074°04'320.7
2017-Oct-11 23:30N 40°42' W 074°01'1 2.9
2017-Oct-11 23:00N 40°41' W 074°02'1 2.3
2017-Oct-11 22:30N 40°41' W 074°03'1 2.0
2017-Oct-11 21:59N 40°41' W 074°05'1 1.6
2017-Oct-11 21:30N 40°41' W 074°04'1 2.0
2017-Oct-11 21:00N 40°41' W 074°03'1 1.8
2017-Oct-11 20:30N 40°41' W 074°02'1 2.0
2017-Oct-11 20:00N 40°42' W 074°01'3 0.1
2017-Oct-10 23:46N 40°41' W 074°04'311.6
2017-Oct-10 23:30N 40°42' W 074°01'2 3.9
2017-Oct-10 23:01N 40°41' W 074°03'1 2.3
2017-Oct-10 22:30N 40°41' W 074°04'0 0.9
2017-Oct-10 22:01N 40°41' W 074°05'1 1.5
2017-Oct-10 21:31N 40°41' W 074°04'1 2.7
2017-Oct-10 21:00N 40°41' W 074°02'2 3.1
2017-Oct-10 20:31N 40°42' W 074°01'0 0.1
2017-Oct-10 20:00N 40°42' W 074°01'3 5.9
2017-Oct-10 19:30N 40°41' W 074°04'0 0.0
2017-Oct-10 13:59N 40°41' W 074°04'0 0.0
2017-Oct-10 13:30N 40°41' W 074°04'1 1.7
2017-Oct-10 13:01N 40°41' W 074°04'2 3.7
2017-Oct-10 12:31N 40°42' W 074°02'1 1.7
2017-Oct-10 12:01N 40°42' W 074°01'1 2.7
2017-Oct-10 11:31N 40°41' W 074°02'1 2.9
2017-Oct-10 11:00N 40°41' W 074°04'1 1.5
2017-Oct-10 10:30N 40°41' W 074°05'0 0.0
2017-Oct-10 10:00N 40°41' W 074°05'1 0.1
2017-Oct-09 23:37N 40°41' W 074°04'324.0
2017-Oct-09 23:31N 40°42' W 074°01'2 3.8
2017-Oct-09 23:01N 40°41' W 074°03'1 2.1
2017-Oct-09 22:31N 40°41' W 074°04'0 0.9
2017-Oct-09 22:00N 40°41' W 074°05'1 1.7
2017-Oct-09 21:30N 40°41' W 074°04'1 2.1
2017-Oct-09 21:00N 40°41' W 074°02'2 3.3
2017-Oct-09 20:30N 40°42' W 074°01'0 0.0
2017-Oct-09 20:00N 40°42' W 074°01'3 5.9
2017-Oct-09 19:30N 40°41' W 074°04'0 0.0
2017-Oct-09 15:18N 40°41' W 074°04'415.1
2017-Oct-09 15:00N 40°45' W 074°01'1 2.9
2017-Oct-09 14:30N 40°46' W 074°01'0 0.0
2017-Oct-09 14:00N 40°46' W 074°01'611.3
2017-Oct-09 13:30N 40°41' W 074°05'1 2.3
2017-Oct-09 13:00N 40°41' W 074°03'1 2.1
2017-Oct-09 12:31N 40°41' W 074°02'1 2.8
2017-Oct-09 12:01N 40°42' W 074°01'1 2.8
2017-Oct-09 11:30N 40°41' W 074°02'1 2.9
2017-Oct-09 11:00N 40°41' W 074°04'1 1.1
2017-Oct-09 10:30N 40°41' W 074°05'0 0.1
2017-Oct-09 10:00N 40°41' W 074°05'0 0.1
2017-Oct-09 09:30N 40°41' W 074°04'0 0.0
2017-Oct-09 09:00N 40°41' W 074°04'0 0.0
2017-Oct-09 08:30N 40°41' W 074°04'0 0.0
2017-Oct-09 08:00N 40°41' W 074°04'0 0.0
2017-Oct-09 07:30N 40°41' W 074°04'0 0.0
2017-Oct-09 07:00N 40°41' W 074°04'0 0.0
2017-Oct-09 06:30N 40°41' W 074°04'0 0.0
2017-Oct-09 06:00N 40°41' W 074°04'0 0.0
2017-Oct-09 05:30N 40°41' W 074°04'0 0.0
2017-Oct-09 05:00N 40°41' W 074°04'0 0.0
2017-Oct-09 04:30N 40°41' W 074°04'0 0.0
2017-Oct-09 04:00N 40°41' W 074°04'0 0.0
2017-Oct-09 03:30N 40°41' W 074°04'0 0.0
2017-Oct-09 03:00N 40°41' W 074°04'0 0.0
2017-Oct-09 02:30N 40°41' W 074°04'0 0.0
2017-Oct-09 02:00N 40°41' W 074°04'  

Dump ship's entire track history